Terminal Aerodrome Forecast
Issued by NWS Albany, NY

Home | Current Version | Previous Version | Text Only | Print | Product List | Glossary On
Versions: 1 2 3 4 5 6 7 8 9 10 11 12 13 14 15 16 17 18 19
257
FTUS41 KALY 250901 AAB
TAFALB
TAF AMD
KALB 250901Z 2509/2606 17010G15KT 6SM BR BKN015 OVC050
     FM251100 17009KT 4SM BR OVC008
     FM251500 17015G25KT 6SM BR VCSH SCT025 BKN040
     FM252000 19015G28KT 2SM TSRA BR BKN015CB OVC040
     FM252300 29015G28KT 5SM -SHRA BR VCTS BKN015CB OVC040
     FM260200 29018G29KT 6SM BR VCSH BKN015=

USA.gov is the U.S. government's official web portal to all federal, state and local government web resources and services.